Time;durP1;ratioP1;P1;durP2;ratioP2;P2;SDS_P1;SDS_P2;PMS_P1;PMS_P2;Temp;Humidity;BMP_temperature;BMP_pressure;BME280_temperature;BME280_humidity;BME280_pressure;Samples;Min_cycle;Max_cycle;Signal;HPM_P1;HPM_P2
2022/08/01 00:01:21;;;;;;;;;;;22.20;65.50;;;;;;6215144;23;1269;-72
2022/08/01 00:03:47;;;;;;;;;;;22.20;65.50;;;;;;6216933;23;792;-73
2022/08/01 00:06:12;;;;;;;;;;;22.20;65.50;;;;;;6190251;23;1350;-72
2022/08/01 00:08:38;;;;;;;;;;;22.20;65.50;;;;;;6216841;23;1914;-73
2022/08/01 00:11:03;;;;;;;;;;;22.20;65.50;;;;;;6216537;23;1203;-73
2022/08/01 00:13:28;;;;;;;;;;;22.20;65.60;;;;;;6190001;23;1406;-72
2022/08/01 00:15:54;;;;;;;;;;;22.20;65.60;;;;;;6216807;23;864;-73
2022/08/01 00:18:19;;;;;;;;;;;22.20;65.50;;;;;;6216776;23;819;-73
2022/08/01 00:20:45;;;;;;;;;;;22.20;65.60;;;;;;6216726;23;1206;-72
2022/08/01 00:23:10;;;;;;;;;;;22.20;66.30;;;;;;6165126;23;1222;-72
2022/08/01 00:25:36;;;;;;;;;;;22.20;65.60;;;;;;6175774;23;2120;-74
2022/08/01 00:28:01;;;;;;;;;;;22.20;65.60;;;;;;6185298;23;1897;-73
2022/08/01 00:30:27;;;;;;;;;;;22.20;65.60;;;;;;6184744;23;1175;-74
2022/08/01 00:32:52;;;;;;;;;;;22.20;65.60;;;;;;6187239;23;916;-73
2022/08/01 00:35:18;;;;;;;;;;;22.20;65.60;;;;;;6187086;23;1177;-73
2022/08/01 00:37:43;;;;;;;;;;;22.20;65.60;;;;;;6187158;23;782;-73
2022/08/01 00:40:09;;;;;;;;;;;22.20;65.60;;;;;;6185162;23;822;-73
2022/08/01 00:42:34;;;;;;;;;;;22.20;65.60;;;;;;6185326;23;1287;-73
2022/08/01 00:45:00;;;;;;;;;;;22.20;65.60;;;;;;6185424;23;1218;-73
2022/08/01 00:47:25;;;;;;;;;;;22.20;65.60;;;;;;6185397;23;1928;-73
2022/08/01 00:49:51;;;;;;;;;;;22.10;65.60;;;;;;6186791;23;766;-73
2022/08/01 00:52:16;;;;;;;;;;;22.20;65.60;;;;;;6185094;23;791;-73
2022/08/01 00:54:42;;;;;;;;;;;22.20;65.70;;;;;;6185425;23;1277;-73
2022/08/01 00:57:07;;;;;;;;;;;22.10;65.60;;;;;;6185532;23;806;-73
2022/08/01 00:59:33;;;;;;;;;;;22.20;65.70;;;;;;6185264;23;845;-73
2022/08/01 01:01:58;;;;;;;;;;;22.20;65.70;;;;;;6185238;23;941;-73
2022/08/01 01:04:23;;;;;;;;;;;22.20;65.70;;;;;;6196554;23;1240;-73
2022/08/01 01:07:08;;;;;;;;;;;22.20;65.70;;;;;;6183122;23;1550;-73
2022/08/01 01:09:44;;;;;;;;;;;22.20;65.70;;;;;;6185141;23;1282;-73
2022/08/01 01:12:22;;;;;;;;;;;22.20;65.70;;;;;;6184825;23;881;-73
2022/08/01 01:14:50;;;;;;;;;;;22.20;65.80;;;;;;6184725;23;1194;-73
2022/08/01 01:17:17;;;;;;;;;;;22.20;65.70;;;;;;6186476;23;997;-73
2022/08/01 01:19:47;;;;;;;;;;;22.10;65.70;;;;;;6185239;23;819;-73
2022/08/01 01:22:13;;;;;;;;;;;22.20;65.80;;;;;;6159669;23;1180;-73
2022/08/01 01:25:02;;;;;;;;;;;22.10;65.70;;;;;;6186086;23;1175;-73
2022/08/01 01:27:32;;;;;;;;;;;22.20;65.70;;;;;;6177986;23;1928;-73
2022/08/01 01:29:58;;;;;;;;;;;22.20;65.80;;;;;;6185243;23;890;-73
2022/08/01 01:32:33;;;;;;;;;;;22.10;65.70;;;;;;6184597;23;833;-73
2022/08/01 01:34:59;;;;;;;;;;;22.20;65.80;;;;;;6160227;23;1182;-73
2022/08/01 01:37:24;;;;;;;;;;;22.20;65.80;;;;;;6159866;23;1144;-73
2022/08/01 01:39:50;;;;;;;;;;;22.10;65.80;;;;;;6185469;23;835;-73
2022/08/01 01:42:16;;;;;;;;;;;22.10;65.80;;;;;;6160731;23;1347;-73
2022/08/01 01:44:41;;;;;;;;;;;22.10;65.70;;;;;;6184691;23;1237;-73
2022/08/01 01:47:06;;;;;;;;;;;22.20;65.80;;;;;;6185263;23;1930;-73
2022/08/01 01:49:32;;;;;;;;;;;22.20;65.80;;;;;;6186110;23;945;-73
2022/08/01 01:51:57;;;;;;;;;;;22.20;65.80;;;;;;6184701;23;1032;-73
2022/08/01 01:54:24;;;;;;;;;;;22.20;65.80;;;;;;6184772;23;1242;-73
2022/08/01 01:56:50;;;;;;;;;;;22.20;65.90;;;;;;6184521;23;945;-73
2022/08/01 01:59:20;;;;;;;;;;;22.20;65.80;;;;;;6184893;23;921;-73
2022/08/01 02:01:46;;;;;;;;;;;22.10;65.80;;;;;;6184729;23;853;-73
2022/08/01 02:04:11;;;;;;;;;;;22.10;65.80;;;;;;6184360;23;1285;-73
2022/08/01 02:06:37;;;;;;;;;;;22.20;65.90;;;;;;6184964;23;922;-73
2022/08/01 02:09:02;;;;;;;;;;;22.20;65.90;;;;;;6184521;23;1893;-73
2022/08/01 02:11:28;;;;;;;;;;;22.10;65.80;;;;;;6159736;23;1449;-73
2022/08/01 02:13:58;;;;;;;;;;;22.10;65.80;;;;;;6184388;23;1297;-73
2022/08/01 02:16:28;;;;;;;;;;;22.10;65.90;;;;;;6184859;23;834;-73
2022/08/01 02:18:53;;;;;;;;;;;22.10;65.90;;;;;;6159756;23;1700;-73
2022/08/01 02:21:39;;;;;;;;;;;22.10;65.90;;;;;;6158977;23;1279;-73
2022/08/01 02:24:12;;;;;;;;;;;22.10;65.90;;;;;;6184901;23;1267;-73
2022/08/01 02:26:38;;;;;;;;;;;22.10;65.90;;;;;;6184441;23;1008;-73
2022/08/01 02:29:05;;;;;;;;;;;22.10;65.90;;;;;;6184276;23;1952;-73
2022/08/01 02:31:31;;;;;;;;;;;22.10;65.90;;;;;;6185633;23;798;-73
2022/08/01 02:33:58;;;;;;;;;;;22.10;65.90;;;;;;6158674;23;1262;-73
2022/08/01 02:36:24;;;;;;;;;;;22.10;65.90;;;;;;6183648;23;874;-73
2022/08/01 02:38:50;;;;;;;;;;;22.10;65.90;;;;;;6183384;23;1351;-73
2022/08/01 02:41:17;;;;;;;;;;;22.10;66.00;;;;;;6184806;23;1039;-73
2022/08/01 02:43:43;;;;;;;;;;;22.10;65.90;;;;;;6157877;23;1309;-73
2022/08/01 02:46:11;;;;;;;;;;;22.20;66.00;;;;;;6183752;23;988;-73
2022/08/01 02:48:36;;;;;;;;;;;22.10;66.00;;;;;;6183346;23;1928;-73
2022/08/01 02:51:02;;;;;;;;;;;22.10;66.00;;;;;;6183396;23;878;-72
2022/08/01 02:53:28;;;;;;;;;;;22.10;66.00;;;;;;6158217;23;1278;-73
2022/08/01 02:55:53;;;;;;;;;;;22.10;66.00;;;;;;6185085;23;743;-73
2022/08/01 02:58:19;;;;;;;;;;;22.10;66.00;;;;;;6182847;23;798;-73
2022/08/01 03:00:44;;;;;;;;;;;22.10;66.00;;;;;;6158131;23;1188;-73
2022/08/01 03:03:10;;;;;;;;;;;22.10;66.00;;;;;;6183013;23;1210;-73
2022/08/01 03:05:35;;;;;;;;;;;22.20;66.00;;;;;;6183549;23;1000;-73
2022/08/01 03:08:01;;;;;;;;;;;22.10;66.00;;;;;;6182795;23;1927;-73
2022/08/01 03:10:26;;;;;;;;;;;22.20;66.10;;;;;;6182961;23;786;-73
2022/08/01 03:12:52;;;;;;;;;;;22.10;66.00;;;;;;6158089;23;1501;-72
2022/08/01 03:15:17;;;;;;;;;;;22.10;66.00;;;;;;6183392;23;1141;-73
2022/08/01 03:17:43;;;;;;;;;;;22.10;66.00;;;;;;6185049;23;854;-73
2022/08/01 03:20:10;;;;;;;;;;;22.10;66.00;;;;;;6182574;23;780;-73
2022/08/01 03:22:35;;;;;;;;;;;22.10;66.00;;;;;;6184923;23;826;-73
2022/08/01 03:25:01;;;;;;;;;;;22.10;66.00;;;;;;6157955;23;1265;-73
2022/08/01 03:27:26;;;;;;;;;;;22.10;66.00;;;;;;6157976;23;1926;-73
2022/08/01 03:29:52;;;;;;;;;;;22.10;66.00;;;;;;6182926;23;1289;-72
2022/08/01 03:32:17;;;;;;;;;;;22.10;66.00;;;;;;6183002;23;1044;-73
2022/08/01 03:34:43;;;;;;;;;;;22.10;66.00;;;;;;6158702;23;1281;-73
2022/08/01 03:37:14;;;;;;;;;;;22.10;66.00;;;;;;6184469;23;803;-73
2022/08/01 03:39:42;;;;;;;;;;;22.10;66.00;;;;;;6184949;23;806;-73
2022/08/01 03:42:08;;;;;;;;;;;22.10;66.10;;;;;;6159577;23;1249;-73
2022/08/01 03:44:35;;;;;;;;;;;22.10;66.00;;;;;;6186598;23;1184;-73
2022/08/01 03:47:02;;;;;;;;;;;22.20;66.10;;;;;;6185270;23;1927;-73
2022/08/01 03:49:31;;;;;;;;;;;22.10;66.00;;;;;;6159932;23;1394;-73
2022/08/01 03:51:57;;;;;;;;;;;22.10;66.10;;;;;;6159297;23;1426;-73
2022/08/01 03:54:24;;;;;;;;;;;22.10;66.00;;;;;;6159277;23;1199;-73
2022/08/01 03:56:49;;;;;;;;;;;22.10;66.10;;;;;;6160224;23;1404;-73
2022/08/01 03:59:16;;;;;;;;;;;22.10;66.10;;;;;;6184812;23;808;-73
2022/08/01 04:01:41;;;;;;;;;;;22.10;66.10;;;;;;6159808;23;1279;-73
2022/08/01 04:04:06;;;;;;;;;;;22.10;66.10;;;;;;6186092;23;1148;-73
2022/08/01 04:06:32;;;;;;;;;;;22.10;66.10;;;;;;6159775;23;1134;-73
2022/08/01 04:08:57;;;;;;;;;;;22.10;66.10;;;;;;6184552;23;1925;-73
2022/08/01 04:11:23;;;;;;;;;;;22.10;66.10;;;;;;6185971;23;858;-73
2022/08/01 04:13:49;;;;;;;;;;;22.10;66.10;;;;;;6160270;23;1407;-73
2022/08/01 04:16:14;;;;;;;;;;;22.10;66.10;;;;;;6184515;23;1357;-73
2022/08/01 04:18:40;;;;;;;;;;;22.20;66.20;;;;;;6186291;23;893;-73
2022/08/01 04:21:05;;;;;;;;;;;22.10;66.10;;;;;;6160224;23;1383;-73
2022/08/01 04:23:31;;;;;;;;;;;22.10;66.10;;;;;;6185795;23;1188;-73
2022/08/01 04:25:57;;;;;;;;;;;22.10;66.10;;;;;;6159369;23;1168;-73
2022/08/01 04:28:23;;;;;;;;;;;22.10;66.10;;;;;;6159707;23;1935;-73
2022/08/01 04:30:48;;;;;;;;;;;22.10;66.10;;;;;;6184244;23;841;-73
2022/08/01 04:33:16;;;;;;;;;;;22.10;66.20;;;;;;6184984;23;1289;-73
2022/08/01 04:35:42;;;;;;;;;;;22.10;66.20;;;;;;6184377;23;1527;-73
2022/08/01 04:38:08;;;;;;;;;;;22.10;66.20;;;;;;6159453;23;1225;-73
2022/08/01 04:40:35;;;;;;;;;;;22.10;66.20;;;;;;6184260;23;862;-73
2022/08/01 04:43:01;;;;;;;;;;;22.10;66.20;;;;;;6184541;23;827;-73
2022/08/01 04:45:26;;;;;;;;;;;22.10;66.20;;;;;;6186015;23;1167;-73
2022/08/01 04:47:51;;;;;;;;;;;22.10;66.20;;;;;;6183822;23;1917;-73
2022/08/01 04:50:17;;;;;;;;;;;22.10;66.20;;;;;;6183996;23;815;-73
2022/08/01 04:52:43;;;;;;;;;;;22.10;66.20;;;;;;6185924;23;798;-73
2022/08/01 04:55:08;;;;;;;;;;;22.10;66.20;;;;;;6184428;23;1156;-73
2022/08/01 04:57:37;;;;;;;;;;;22.10;66.30;;;;;;6185952;23;759;-73
2022/08/01 05:00:03;;;;;;;;;;;22.10;66.20;;;;;;6184299;23;1151;-73
2022/08/01 05:02:28;;;;;;;;;;;22.10;66.20;;;;;;6184601;23;822;-73
2022/08/01 05:04:55;;;;;;;;;;;22.10;66.20;;;;;;6184050;23;1486;-73
2022/08/01 05:07:20;;;;;;;;;;;22.10;66.20;;;;;;6184289;23;1926;-73
2022/08/01 05:09:46;;;;;;;;;;;22.10;66.30;;;;;;6158929;23;1267;-73
2022/08/01 05:12:11;;;;;;;;;;;22.10;66.30;;;;;;6185847;23;787;-73
2022/08/01 05:14:36;;;;;;;;;;;22.10;66.30;;;;;;6159102;23;1380;-73
2022/08/01 05:17:03;;;;;;;;;;;22.10;66.20;;;;;;6184348;23;922;-73
2022/08/01 05:19:30;;;;;;;;;;;22.10;66.30;;;;;;6184608;23;790;-73
2022/08/01 05:21:56;;;;;;;;;;;22.10;66.30;;;;;;6185319;23;758;-73
2022/08/01 05:24:22;;;;;;;;;;;22.10;66.30;;;;;;6184009;23;1289;-73
2022/08/01 05:26:48;;;;;;;;;;;22.10;66.30;;;;;;6185662;23;826;-73
2022/08/01 05:29:14;;;;;;;;;;;22.10;66.30;;;;;;6186420;23;1897;-73
2022/08/01 05:31:40;;;;;;;;;;;22.10;66.30;;;;;;6185490;23;882;-73
2022/08/01 05:34:05;;;;;;;;;;;22.10;66.30;;;;;;6183992;23;1305;-73
2022/08/01 05:36:30;;;;;;;;;;;22.10;66.30;;;;;;6185117;23;1001;-73
2022/08/01 05:38:56;;;;;;;;;;;22.10;66.30;;;;;;6185570;23;814;-73
2022/08/01 05:41:21;;;;;;;;;;;22.10;66.30;;;;;;6185332;23;818;-73
2022/08/01 05:43:47;;;;;;;;;;;22.10;66.30;;;;;;6184046;23;1180;-73
2022/08/01 05:46:12;;;;;;;;;;;22.10;66.30;;;;;;6185457;23;874;-74
2022/08/01 05:48:38;;;;;;;;;;;22.10;66.30;;;;;;6158678;23;1919;-73
2022/08/01 05:51:03;;;;;;;;;;;22.10;66.30;;;;;;6183272;23;1361;-73
2022/08/01 05:53:29;;;;;;;;;;;22.10;66.30;;;;;;6183673;23;1277;-73
2022/08/01 05:55:54;;;;;;;;;;;22.10;66.40;;;;;;6183948;23;875;-73
2022/08/01 05:58:20;;;;;;;;;;;22.10;66.40;;;;;;6184007;23;807;-73
2022/08/01 06:00:45;;;;;;;;;;;22.10;66.40;;;;;;6183077;23;1193;-73
2022/08/01 06:03:11;;;;;;;;;;;22.10;66.40;;;;;;6185084;23;1188;-73
2022/08/01 06:05:36;;;;;;;;;;;22.10;66.40;;;;;;6183953;23;1378;-73
2022/08/01 06:08:02;;;;;;;;;;;22.10;66.40;;;;;;6158648;23;1928;-74
2022/08/01 06:10:27;;;;;;;;;;;22.10;66.40;;;;;;6183349;23;847;-73
2022/08/01 06:12:53;;;;;;;;;;;22.10;66.40;;;;;;6183717;23;1835;-73
2022/08/01 06:15:18;;;;;;;;;;;22.10;66.40;;;;;;6183810;23;1267;-73
2022/08/01 06:17:44;;;;;;;;;;;22.10;66.40;;;;;;6183520;23;1300;-73
2022/08/01 06:20:10;;;;;;;;;;;22.10;66.40;;;;;;6158654;23;1561;-74
2022/08/01 06:22:35;;;;;;;;;;;22.10;66.40;;;;;;6158723;23;1197;-74
2022/08/01 06:25:00;;;;;;;;;;;22.10;66.40;;;;;;6158459;23;1299;-74
2022/08/01 06:27:26;;;;;;;;;;;22.10;66.40;;;;;;6184670;23;1901;-74
2022/08/01 06:29:54;;;;;;;;;;;22.10;66.40;;;;;;6184872;23;894;-74
2022/08/01 06:32:22;;;;;;;;;;;22.10;66.40;;;;;;6184884;23;945;-74
2022/08/01 06:34:47;;;;;;;;;;;22.10;66.40;;;;;;6183275;23;1272;-74
2022/08/01 06:37:14;;;;;;;;;;;22.10;66.40;;;;;;6174865;23;1413;-74
2022/08/01 06:39:39;;;;;;;;;;;22.10;66.40;;;;;;6182388;23;1279;-74
2022/08/01 06:42:05;;;;;;;;;;;22.10;66.50;;;;;;6181892;23;1085;-74
2022/08/01 06:44:30;;;;;;;;;;;22.10;66.40;;;;;;6183875;23;1243;-74
2022/08/01 06:46:58;;;;;;;;;;;22.10;66.50;;;;;;6184204;23;894;-74
2022/08/01 06:49:24;;;;;;;;;;;22.10;66.50;;;;;;6182604;23;1934;-74
2022/08/01 06:51:49;;;;;;;;;;;22.10;66.50;;;;;;6181828;23;945;-74
2022/08/01 06:54:15;;;;;;;;;;;22.10;66.50;;;;;;6183550;23;1198;-74
2022/08/01 06:56:41;;;;;;;;;;;22.10;66.50;;;;;;6182328;23;1159;-74
2022/08/01 06:59:06;;;;;;;;;;;22.10;66.50;;;;;;6182669;23;815;-74
2022/08/01 07:01:32;;;;;;;;;;;22.10;66.50;;;;;;6183380;23;779;-74
2022/08/01 07:03:57;;;;;;;;;;;22.10;66.50;;;;;;6157460;23;1219;-75
2022/08/01 07:06:23;;;;;;;;;;;22.10;66.50;;;;;;6182053;23;1135;-74
2022/08/01 07:08:49;;;;;;;;;;;22.10;66.50;;;;;;6157148;23;1943;-74
2022/08/01 07:11:14;;;;;;;;;;;22.10;66.50;;;;;;6181931;23;822;-74
2022/08/01 07:13:39;;;;;;;;;;;22.10;66.50;;;;;;6156865;23;1191;-74
2022/08/01 07:16:05;;;;;;;;;;;22.10;66.50;;;;;;6182535;23;795;-74
2022/08/01 07:18:30;;;;;;;;;;;22.10;66.50;;;;;;6157033;23;1187;-75
2022/08/01 07:20:56;;;;;;;;;;;22.10;66.50;;;;;;6183276;23;846;-75
2022/08/01 07:23:21;;;;;;;;;;;22.10;66.50;;;;;;6183351;23;1199;-74
2022/08/01 07:25:48;;;;;;;;;;;22.10;66.50;;;;;;6182449;23;1272;-74
2022/08/01 07:28:14;;;;;;;;;;;22.10;66.50;;;;;;6182031;23;1888;-75
2022/08/01 07:30:41;;;;;;;;;;;22.10;66.60;;;;;;6181967;23;843;-75
2022/08/01 07:33:07;;;;;;;;;;;22.10;66.50;;;;;;6183218;23;867;-75
2022/08/01 07:35:32;;;;;;;;;;;22.10;66.50;;;;;;6183673;23;1235;-75
2022/08/01 07:37:58;;;;;;;;;;;22.10;66.50;;;;;;6182387;23;1240;-75
2022/08/01 07:40:23;;;;;;;;;;;22.10;66.60;;;;;;6181739;23;780;-75
2022/08/01 07:42:49;;;;;;;;;;;22.10;66.50;;;;;;6183838;23;1001;-75
2022/08/01 07:45:15;;;;;;;;;;;22.10;66.60;;;;;;6182012;23;1208;-75
2022/08/01 07:47:40;;;;;;;;;;;22.10;66.60;;;;;;6182437;23;1977;-75
2022/08/01 07:50:06;;;;;;;;;;;22.10;66.60;;;;;;6157087;23;1276;-75
2022/08/01 07:52:31;;;;;;;;;;;22.10;66.60;;;;;;6184058;23;902;-75
2022/08/01 07:54:57;;;;;;;;;;;22.10;66.60;;;;;;6182210;23;1302;-75
2022/08/01 07:57:23;;;;;;;;;;;22.10;66.60;;;;;;6183046;23;873;-75
2022/08/01 07:59:49;;;;;;;;;;;22.10;66.60;;;;;;6183748;23;798;-76
2022/08/01 08:02:14;;;;;;;;;;;22.10;66.60;;;;;;6182401;23;934;-74
2022/08/01 08:04:40;;;;;;;;;;;22.10;66.60;;;;;;6182409;23;1297;-73
2022/08/01 08:07:05;;;;;;;;;;;22.10;66.60;;;;;;6182752;23;1922;-73
2022/08/01 08:09:31;;;;;;;;;;;22.10;66.60;;;;;;6182503;23;1186;-73
2022/08/01 08:11:56;;;;;;;;;;;22.10;66.60;;;;;;6157267;23;1271;-72
2022/08/01 08:14:23;;;;;;;;;;;22.10;66.60;;;;;;6181582;23;1249;-73
2022/08/01 08:16:49;;;;;;;;;;;22.10;66.70;;;;;;6181899;23;863;-73
2022/08/01 08:19:14;;;;;;;;;;;22.10;66.60;;;;;;6181817;23;870;-73
2022/08/01 08:21:40;;;;;;;;;;;22.10;66.60;;;;;;6183085;23;1044;-73
2022/08/01 08:24:21;;;;;;;;;;;22.10;66.60;;;;;;6183583;23;1215;-73
2022/08/01 08:26:47;;;;;;;;;;;22.10;66.60;;;;;;6183814;23;1408;-73
2022/08/01 08:29:12;;;;;;;;;;;22.10;66.70;;;;;;6185212;23;1961;-73
2022/08/01 08:31:38;;;;;;;;;;;22.10;66.60;;;;;;6184396;23;913;-73
2022/08/01 08:34:03;;;;;;;;;;;22.10;66.60;;;;;;6185090;23;1277;-73
2022/08/01 08:36:29;;;;;;;;;;;22.10;66.70;;;;;;6185742;23;826;-73
2022/08/01 08:38:54;;;;;;;;;;;22.10;66.70;;;;;;6183634;23;894;-75
2022/08/01 08:41:20;;;;;;;;;;;22.10;66.70;;;;;;6158710;23;1220;-75
2022/08/01 08:43:45;;;;;;;;;;;22.10;66.70;;;;;;6185323;23;1571;-75
2022/08/01 08:46:11;;;;;;;;;;;22.10;66.70;;;;;;6183369;23;1417;-76
2022/08/01 08:48:36;;;;;;;;;;;22.10;66.70;;;;;;6183513;23;1928;-76
2022/08/01 08:51:02;;;;;;;;;;;22.10;66.70;;;;;;6158259;23;1595;-75
2022/08/01 08:53:27;;;;;;;;;;;22.10;66.70;;;;;;6183189;23;1638;-76
2022/08/01 08:55:53;;;;;;;;;;;22.10;66.70;;;;;;6158172;23;1623;-80
2022/08/01 08:58:18;;;;;;;;;;;22.10;66.70;;;;;;6183767;23;941;-75
2022/08/01 09:00:44;;;;;;;;;;;22.10;66.70;;;;;;6183989;23;783;-75
2022/08/01 09:03:09;;;;;;;;;;;22.10;66.70;;;;;;6183046;23;1554;-75
2022/08/01 09:05:35;;;;;;;;;;;22.10;66.70;;;;;;6157875;23;1130;-75
2022/08/01 09:08:00;;;;;;;;;;;22.10;66.70;;;;;;6183415;23;1916;-75
2022/08/01 09:10:25;;;;;;;;;;;22.10;66.70;;;;;;6158510;23;1234;-75
2022/08/01 09:13:11;;;;;;;;;;;22.10;66.70;;;;;;6184186;23;783;-75
2022/08/01 09:15:38;;;;;;;;;;;22.10;66.70;;;;;;6185359;23;1211;-75
2022/08/01 09:18:03;;;;;;;;;;;22.10;66.70;;;;;;6184179;23;1292;-75
2022/08/01 09:20:29;;;;;;;;;;;22.10;66.80;;;;;;6183836;23;890;-76
2022/08/01 09:22:54;;;;;;;;;;;22.10;66.80;;;;;;6159276;23;1189;-76
2022/08/01 09:25:20;;;;;;;;;;;22.10;66.70;;;;;;6185481;23;1217;-77
2022/08/01 09:27:45;;;;;;;;;;;22.10;66.80;;;;;;6185357;23;1888;-77
2022/08/01 09:30:18;;;;;;;;;;;22.10;66.70;;;;;;6184729;23;798;-77
2022/08/01 09:32:56;;;;;;;;;;;22.10;66.80;;;;;;6184386;23;1183;-76
2022/08/01 09:35:22;;;;;;;;;;;22.10;66.70;;;;;;6183657;23;1290;-76
2022/08/01 09:37:48;;;;;;;;;;;22.10;66.70;;;;;;6185595;23;751;-76
2022/08/01 09:40:13;;;;;;;;;;;22.10;66.80;;;;;;6158102;23;1356;-76
2022/08/01 09:42:39;;;;;;;;;;;22.10;66.80;;;;;;6183857;23;1195;-78
2022/08/01 09:45:05;;;;;;;;;;;22.10;67.50;;;;;;6185262;23;1271;-76
2022/08/01 09:47:37;;;;;;;;;;;22.10;66.80;;;;;;6185036;23;1885;-76
2022/08/01 09:50:02;;;;;;;;;;;22.10;66.80;;;;;;6183505;23;826;-76
2022/08/01 09:52:28;;;;;;;;;;;22.10;66.80;;;;;;6185691;23;885;-75
2022/08/01 09:54:55;;;;;;;;;;;22.10;66.80;;;;;;6183328;23;1612;-77
2022/08/01 09:57:20;;;;;;;;;;;22.10;66.80;;;;;;6183614;23;882;-77
2022/08/01 09:59:47;;;;;;;;;;;22.10;66.80;;;;;;6184590;23;775;-76
2022/08/01 10:02:16;;;;;;;;;;;22.10;66.80;;;;;;6182539;23;1699;-76
2022/08/01 10:04:48;;;;;;;;;;;22.10;66.80;;;;;;6182953;23;1222;-76
2022/08/01 10:07:15;;;;;;;;;;;22.10;66.80;;;;;;6157903;23;1930;-77
2022/08/01 10:09:41;;;;;;;;;;;22.10;66.80;;;;;;6184260;23;819;-78
2022/08/01 10:12:06;;;;;;;;;;;22.10;66.80;;;;;;6182514;23;724;-77
2022/08/01 10:14:32;;;;;;;;;;;22.10;66.90;;;;;;6157877;23;1271;-76
2022/08/01 10:16:58;;;;;;;;;;;22.10;66.80;;;;;;6182827;23;811;-75
2022/08/01 10:19:24;;;;;;;;;;;22.10;66.80;;;;;;6157925;23;1369;-75
2022/08/01 10:21:52;;;;;;;;;;;22.10;66.80;;;;;;6181638;23;1394;-76
2022/08/01 10:24:18;;;;;;;;;;;22.10;66.80;;;;;;6182061;23;1283;-75
2022/08/01 10:26:44;;;;;;;;;;;22.10;66.80;;;;;;6182714;23;858;-76
2022/08/01 10:29:09;;;;;;;;;;;22.10;66.80;;;;;;6182362;23;1897;-75
2022/08/01 10:31:35;;;;;;;;;;;22.10;66.90;;;;;;6182071;23;918;-76
2022/08/01 10:34:00;;;;;;;;;;;22.10;66.90;;;;;;6157375;23;1321;-76
2022/08/01 10:36:26;;;;;;;;;;;22.10;66.90;;;;;;6184515;23;775;-76
2022/08/01 10:38:52;;;;;;;;;;;22.10;66.90;;;;;;6181824;23;851;-76
2022/08/01 10:41:17;;;;;;;;;;;22.10;66.90;;;;;;6182262;23;779;-76
2022/08/01 10:43:43;;;;;;;;;;;22.10;66.90;;;;;;6157462;23;1207;-75
2022/08/01 10:46:09;;;;;;;;;;;22.10;66.80;;;;;;6183809;23;810;-76
2022/08/01 10:48:40;;;;;;;;;;;22.10;66.90;;;;;;6182323;23;1889;-75
2022/08/01 10:51:06;;;;;;;;;;;22.10;66.90;;;;;;6183243;23;752;-76
2022/08/01 10:53:32;;;;;;;;;;;22.10;66.90;;;;;;6182225;23;1274;-75
2022/08/01 10:56:05;;;;;;;;;;;22.10;67.10;;;;;;6184188;23;802;-75
2022/08/01 10:58:40;;;;;;;;;;;22.10;66.90;;;;;;6183995;23;806;-76
2022/08/01 11:01:13;;;;;;;;;;;22.10;66.90;;;;;;6183655;23;806;-75
2022/08/01 11:03:38;;;;;;;;;;;22.10;66.90;;;;;;6157177;23;1253;-75
2022/08/01 11:06:04;;;;;;;;;;;22.10;66.90;;;;;;6159006;23;1254;-75
2022/08/01 11:08:30;;;;;;;;;;;22.10;66.90;;;;;;6182556;23;1892;-75
2022/08/01 11:10:59;;;;;;;;;;;22.10;66.90;;;;;;6157061;23;1287;-76
2022/08/01 11:13:44;;;;;;;;;;;22.10;66.90;;;;;;6182416;23;1271;-75
2022/08/01 11:16:25;;;;;;;;;;;22.10;66.90;;;;;;6183832;23;965;-75
2022/08/01 11:18:51;;;;;;;;;;;22.10;66.90;;;;;;6182287;23;851;-74
2022/08/01 11:21:18;;;;;;;;;;;22.10;66.90;;;;;;6157369;23;1281;-74
2022/08/01 11:23:47;;;;;;;;;;;22.10;66.90;;;;;;6181885;23;1352;-74
2022/08/01 11:26:13;;;;;;;;;;;22.10;66.90;;;;;;6184105;23;905;-74
2022/08/01 11:28:39;;;;;;;;;;;22.10;66.90;;;;;;6181615;23;1900;-74
2022/08/01 11:31:08;;;;;;;;;;;22.10;67.00;;;;;;6184433;23;788;-73
2022/08/01 11:33:36;;;;;;;;;;;22.10;67.00;;;;;;6182790;23;1281;-73
2022/08/01 11:36:15;;;;;;;;;;;22.10;66.90;;;;;;6184807;23;863;-79
2022/08/01 11:38:43;;;;;;;;;;;22.10;66.90;;;;;;6184491;23;807;-73
2022/08/01 11:41:21;;;;;;;;;;;22.10;67.00;;;;;;6182152;23;1140;-73
2022/08/01 11:43:59;;;;;;;;;;;22.10;67.00;;;;;;6182796;23;1189;-74
2022/08/01 11:47:03;;;;;;;;;;;22.10;67.00;;;;;;6184740;23;858;-73
2022/08/01 11:49:32;;;;;;;;;;;22.10;67.00;;;;;;6097307;23;1944;-73
2022/08/01 11:51:58;;;;;;;;;;;22.10;67.00;;;;;;6121927;23;807;-75
2022/08/01 11:54:30;;;;;;;;;;;22.10;67.00;;;;;;6152343;23;1183;-74
2022/08/01 11:56:56;;;;;;;;;;;22.10;67.00;;;;;;6184906;23;991;-73
2022/08/01 11:59:22;;;;;;;;;;;22.10;67.00;;;;;;6186349;23;841;-73
2022/08/01 12:01:48;;;;;;;;;;;22.10;67.00;;;;;;6186417;23;786;-74
2022/08/01 12:04:13;;;;;;;;;;;22.10;67.00;;;;;;6185657;23;1285;-73
2022/08/01 12:06:39;;;;;;;;;;;22.10;67.00;;;;;;6160246;23;1152;-72
2022/08/01 12:09:21;;;;;;;;;;;22.10;67.00;;;;;;6184449;23;1934;-73
2022/08/01 12:11:46;;;;;;;;;;;22.10;67.00;;;;;;6184729;23;822;-73
2022/08/01 12:14:15;;;;;;;;;;;22.10;67.00;;;;;;6184622;23;1192;-73
2022/08/01 12:16:47;;;;;;;;;;;22.10;67.00;;;;;;6184453;23;937;-72
2022/08/01 12:19:17;;;;;;;;;;;22.10;67.00;;;;;;6160024;23;1295;-73
2022/08/01 12:21:42;;;;;;;;;;;22.10;67.00;;;;;;6184719;23;818;-78
2022/08/01 12:24:08;;;;;;;;;;;22.10;67.00;;;;;;6186142;23;1281;-75
2022/08/01 12:26:43;;;;;;;;;;;22.10;67.00;;;;;;6186246;23;894;-77
2022/08/01 12:29:08;;;;;;;;;;;22.10;67.10;;;;;;6159352;23;1897;-74
2022/08/01 12:31:34;;;;;;;;;;;22.10;67.00;;;;;;6184510;23;878;-73
2022/08/01 12:34:19;;;;;;;;;;;22.10;67.00;;;;;;6185966;23;1212;-73
2022/08/01 12:36:44;;;;;;;;;;;22.10;67.10;;;;;;6186104;23;1226;-73
2022/08/01 12:39:10;;;;;;;;;;;22.10;67.80;;;;;;6159487;23;1344;-73
2022/08/01 12:41:36;;;;;;;;;;;22.10;67.10;;;;;;6184030;23;858;-73
2022/08/01 12:44:01;;;;;;;;;;;22.10;67.10;;;;;;6184188;23;1277;-73
2022/08/01 12:46:27;;;;;;;;;;;22.10;67.10;;;;;;6184612;23;1258;-73
2022/08/01 12:48:52;;;;;;;;;;;22.10;67.10;;;;;;6184504;23;1896;-73
2022/08/01 12:51:18;;;;;;;;;;;22.10;67.10;;;;;;6184262;23;890;-73
2022/08/01 12:53:43;;;;;;;;;;;22.10;67.00;;;;;;6184442;23;1256;-73
2022/08/01 12:56:12;;;;;;;;;;;22.10;67.10;;;;;;6159250;23;1157;-72
2022/08/01 12:58:38;;;;;;;;;;;22.10;67.10;;;;;;6184704;23;857;-73
2022/08/01 13:01:04;;;;;;;;;;;22.10;67.10;;;;;;6184010;23;835;-73
2022/08/01 13:03:30;;;;;;;;;;;22.10;67.10;;;;;;6184314;23;1239;-73
2022/08/01 13:05:56;;;;;;;;;;;22.10;67.10;;;;;;6158084;23;1240;-73
2022/08/01 13:08:23;;;;;;;;;;;22.10;67.10;;;;;;6184973;23;1889;-73
2022/08/01 13:10:48;;;;;;;;;;;22.10;67.10;;;;;;6182146;23;755;-73
2022/08/01 13:13:14;;;;;;;;;;;22.10;67.10;;;;;;6185366;23;1268;-76
2022/08/01 13:15:40;;;;;;;;;;;22.10;67.10;;;;;;6183892;23;973;-74
2022/08/01 13:18:22;;;;;;;;;;;22.10;67.10;;;;;;6183976;23;777;-74
2022/08/01 13:20:47;;;;;;;;;;;22.10;67.10;;;;;;6182798;23;1116;-74
2022/08/01 13:23:16;;;;;;;;;;;22.10;67.10;;;;;;6152128;23;1215;-74
2022/08/01 13:25:49;;;;;;;;;;;22.10;67.10;;;;;;6184461;23;823;-74
2022/08/01 13:28:15;;;;;;;;;;;22.10;67.10;;;;;;6158053;23;1901;-74
2022/08/01 13:30:50;;;;;;;;;;;22.10;67.10;;;;;;6182819;23;774;-74
2022/08/01 13:33:15;;;;;;;;;;;22.10;67.10;;;;;;6179283;23;1238;-74
2022/08/01 13:35:41;;;;;;;;;;;22.10;67.10;;;;;;6155915;23;1675;-74
2022/08/01 13:38:07;;;;;;;;;;;22.10;67.10;;;;;;6182509;23;783;-74
2022/08/01 13:40:32;;;;;;;;;;;22.10;67.10;;;;;;6182851;23;870;-74
2022/08/01 13:42:58;;;;;;;;;;;22.10;67.10;;;;;;6184539;23;784;-74
2022/08/01 13:45:23;;;;;;;;;;;22.10;67.10;;;;;;6182952;23;1187;-73
2022/08/01 13:47:49;;;;;;;;;;;22.10;67.10;;;;;;6182683;23;1928;-73
2022/08/01 13:50:14;;;;;;;;;;;22.10;67.10;;;;;;6181558;23;1394;-73
2022/08/01 13:52:40;;;;;;;;;;;22.10;67.10;;;;;;6184713;23;759;-73
2022/08/01 13:55:05;;;;;;;;;;;22.10;67.20;;;;;;6157616;23;1261;-73
2022/08/01 13:57:31;;;;;;;;;;;22.10;67.10;;;;;;6184861;23;940;-73
2022/08/01 13:59:59;;;;;;;;;;;22.10;67.20;;;;;;6183049;23;1064;-73
2022/08/01 14:02:25;;;;;;;;;;;22.10;67.20;;;;;;6184597;23;735;-73
2022/08/01 14:04:51;;;;;;;;;;;22.10;67.20;;;;;;6182229;23;1273;-73
2022/08/01 14:07:16;;;;;;;;;;;22.10;67.20;;;;;;6182957;23;1375;-74
2022/08/01 14:09:42;;;;;;;;;;;22.10;67.20;;;;;;6184477;23;1913;-74
2022/08/01 14:12:07;;;;;;;;;;;22.10;67.20;;;;;;6182121;23;967;-74
2022/08/01 14:14:33;;;;;;;;;;;22.10;67.20;;;;;;6183063;23;1195;-74
2022/08/01 14:16:58;;;;;;;;;;;22.10;67.20;;;;;;6157978;23;1286;-73
2022/08/01 14:19:24;;;;;;;;;;;22.10;67.20;;;;;;6157660;23;1327;-74
2022/08/01 14:21:52;;;;;;;;;;;22.10;67.20;;;;;;6157023;23;1331;-73
2022/08/01 14:24:17;;;;;;;;;;;22.10;67.20;;;;;;6184002;23;1207;-73
2022/08/01 14:26:43;;;;;;;;;;;22.10;67.20;;;;;;6182811;23;1213;-73
2022/08/01 14:29:08;;;;;;;;;;;22.10;67.20;;;;;;6157773;23;1927;-73
2022/08/01 14:31:33;;;;;;;;;;;22.10;67.20;;;;;;6183544;23;785;-75
2022/08/01 14:33:59;;;;;;;;;;;22.10;67.40;;;;;;6182505;23;1321;-75